Mb Linter 2 — UDAE — position and weather

sailwx.info

Track history (hours):
 
Tides and Currents Weather Stations Pressure Air Temp Water Temp Dewpoint Dewpoint Depression Visibility Wind Speed Wind Dir Waves Ship Positions

Mb Linter 2

Last reported at 2017-Oct-17 13:57 UTC. Time now 2017-Oct-17 18:55 UTC.
Position N 45°08' E 036°33'.

Length 26 m; draft 3.2 m.

Type: Ship. MMSI: 273383840.

Date/timePositionNaut miles runAvg speedWind from/ knotsBaromVisibWave heightAir tempDewpointWater temp
2017-Oct-17 13:57N 45°08' E 036°33'3 5.2
2017-Oct-17 13:28N 45°10' E 036°34'2 3.9
2017-Oct-17 12:55N 45°08' E 036°33'4 9.1
2017-Oct-17 12:30N 45°11' E 036°30'4 8.9
2017-Oct-17 12:00N 45°16' E 036°29'4 7.1
2017-Oct-17 11:30N 45°19' E 036°31'4 7.4
2017-Oct-17 11:00N 45°20' E 036°36'3 5.0
2017-Oct-17 10:29N 45°21' E 036°39'0 0.6
2017-Oct-17 10:00N 45°21' E 036°40'2 4.0
2017-Oct-17 09:30N 45°22' E 036°42'0 0.0
2017-Oct-17 08:59N 45°22' E 036°42'0 0.0
2017-Oct-17 08:30N 45°22' E 036°42'0 0.0
2017-Oct-17 08:00N 45°22' E 036°42'0 0.0
2017-Oct-17 07:26N 45°22' E 036°42'0 0.0
2017-Oct-17 06:59N 45°22' E 036°42'0 0.0
2017-Oct-17 06:30N 45°22' E 036°42'0 0.0
2017-Oct-17 05:59N 45°22' E 036°42'0 0.0
2017-Oct-17 05:26N 45°22' E 036°42'0 0.0
2017-Oct-17 04:54N 45°22' E 036°42'0 0.0
2017-Oct-17 04:30N 45°22' E 036°42'0 0.0
2017-Oct-17 03:58N 45°22' E 036°42'0 0.0
2017-Oct-17 03:16N 45°22' E 036°42'0 0.0
2017-Oct-17 02:58N 45°22' E 036°42'0 0.0
2017-Oct-17 02:30N 45°22' E 036°42'0 0.0
2017-Oct-17 01:58N 45°22' E 036°42'0 0.0
2017-Oct-17 01:27N 45°22' E 036°42'0 0.0
2017-Oct-17 00:54N 45°22' E 036°42'0 0.0
2017-Oct-17 00:28N 45°22' E 036°42'0 0.0
2017-Oct-16 23:58N 45°22' E 036°42'0 0.0
2017-Oct-16 23:22N 45°22' E 036°42'0 0.0
2017-Oct-16 22:58N 45°22' E 036°42'0 0.0
2017-Oct-16 22:28N 45°22' E 036°42'0 0.0
2017-Oct-16 21:58N 45°22' E 036°42'0 0.0
2017-Oct-16 21:25N 45°22' E 036°42'0 0.0
2017-Oct-16 20:54N 45°22' E 036°42'0 0.0
2017-Oct-16 20:30N 45°22' E 036°42'0 0.0
2017-Oct-16 19:56N 45°22' E 036°42'0 0.0
2017-Oct-16 19:28N 45°22' E 036°42'0 0.0
2017-Oct-16 19:00N 45°22' E 036°42'0 0.0
2017-Oct-16 18:28N 45°22' E 036°42'0 0.0
2017-Oct-16 17:59N 45°22' E 036°42'0 0.0
2017-Oct-16 17:27N 45°22' E 036°42'0 0.0
2017-Oct-16 16:59N 45°22' E 036°42'0 0.0
2017-Oct-16 16:29N 45°22' E 036°42'0 0.0
2017-Oct-16 15:58N 45°22' E 036°42'0 0.0
2017-Oct-16 15:24N 45°22' E 036°42'0 0.0
2017-Oct-16 15:00N 45°22' E 036°42'0 0.0
2017-Oct-16 13:59N 45°22' E 036°42'0 0.0
2017-Oct-16 13:29N 45°22' E 036°42'0 0.0
2017-Oct-16 13:00N 45°22' E 036°42'0 0.0
2017-Oct-16 12:28N 45°22' E 036°42'0 0.0
2017-Oct-16 11:56N 45°22' E 036°42'0 0.0
2017-Oct-16 11:28N 45°22' E 036°42'0 0.0
2017-Oct-16 10:59N 45°22' E 036°42'0 0.0
2017-Oct-16 10:27N 45°22' E 036°42'0 0.0
2017-Oct-16 09:57N 45°22' E 036°42'0 0.0
2017-Oct-16 09:28N 45°22' E 036°42'0 0.0
2017-Oct-16 08:58N 45°22' E 036°42'0 0.0
2017-Oct-16 08:28N 45°22' E 036°42'0 0.0
2017-Oct-16 07:59N 45°22' E 036°42'0 0.0
2017-Oct-16 07:28N 45°22' E 036°42'0 0.0
2017-Oct-16 06:59N 45°22' E 036°42'0 0.0
2017-Oct-16 06:29N 45°22' E 036°42'0 0.0
2017-Oct-16 05:56N 45°22' E 036°42'0 0.0
2017-Oct-16 05:29N 45°22' E 036°42'0 0.0
2017-Oct-16 04:53N 45°22' E 036°42'0 0.0
2017-Oct-16 04:28N 45°22' E 036°42'0 0.0
2017-Oct-16 03:56N 45°22' E 036°42'0 0.0
2017-Oct-16 03:26N 45°22' E 036°42'0 0.0
2017-Oct-16 02:59N 45°22' E 036°42'0 0.0
2017-Oct-16 02:30N 45°22' E 036°42'0 0.0
2017-Oct-16 01:58N 45°22' E 036°42'0 0.0
2017-Oct-16 01:29N 45°22' E 036°42'0 0.0
2017-Oct-16 00:58N 45°22' E 036°42'0 0.0
2017-Oct-16 00:30N 45°22' E 036°42'0 0.0
2017-Oct-15 23:58N 45°22' E 036°42'0 0.0
2017-Oct-15 23:30N 45°22' E 036°42'0 0.0
2017-Oct-15 22:57N 45°22' E 036°42'0 0.0
2017-Oct-15 22:28N 45°22' E 036°42'0 0.1
2017-Oct-15 22:00N 45°22' E 036°42'0 0.0
2017-Oct-15 21:24N 45°22' E 036°42'0 0.0
2017-Oct-15 20:59N 45°22' E 036°42'0 0.0
2017-Oct-15 20:29N 45°22' E 036°42'0 0.0
2017-Oct-15 19:56N 45°22' E 036°42'0 0.0
2017-Oct-15 19:27N 45°22' E 036°42'0 0.0
2017-Oct-15 18:59N 45°22' E 036°42'0 0.0
2017-Oct-15 18:28N 45°22' E 036°42'0 0.0
2017-Oct-15 17:58N 45°22' E 036°42'0 0.0
2017-Oct-15 17:26N 45°22' E 036°42'0 0.0
2017-Oct-15 16:52N 45°22' E 036°42'0 0.0
2017-Oct-15 16:29N 45°22' E 036°42'0 0.0
2017-Oct-15 15:56N 45°22' E 036°42'0 0.0
2017-Oct-15 15:30N 45°22' E 036°42'2 3.7
2017-Oct-15 15:00N 45°21' E 036°40'4 4.2
2017-Oct-15 14:00N 45°20' E 036°34'4 6.3
2017-Oct-15 13:18N 45°17' E 036°29'3 7.5
2017-Oct-15 12:51N 45°14' E 036°29'4 8.9
2017-Oct-15 12:24N 45°10' E 036°31'2 0.2
2017-Oct-15 02:55N 45°09' E 036°34'4 9.5
2017-Oct-15 02:30N 45°12' E 036°30'4 8.7
2017-Oct-15 02:01N 45°16' E 036°28'4 8.5
2017-Oct-15 01:31N 45°19' E 036°33'5 9.2
2017-Oct-15 01:00N 45°21' E 036°39'1 2.4
2017-Oct-15 00:31N 45°20' E 036°40'4 8.1
2017-Oct-15 00:00N 45°20' E 036°34'4 8.3
2017-Oct-14 23:29N 45°18' E 036°29'4 8.6
2017-Oct-14 23:00N 45°13' E 036°29'6 1.7
2017-Oct-14 19:25N 45°09' E 036°34'1 0.2
2017-Oct-14 14:19N 45°09' E 036°33'0 0.6
2017-Oct-14 14:00N 45°09' E 036°33'1 1.6
2017-Oct-14 13:11N 45°07' E 036°33'0 1.3
2017-Oct-14 12:59N 45°07' E 036°33'0 0.0
2017-Oct-14 12:30N 45°07' E 036°33'1 0.7
2017-Oct-14 11:23N 45°08' E 036°33'2 4.7
2017-Oct-14 11:00N 45°10' E 036°32'5 9.2
2017-Oct-14 10:30N 45°14' E 036°28'4 8.8
2017-Oct-14 10:00N 45°18' E 036°29'4 9.0
2017-Oct-14 09:30N 45°20' E 036°35'4 7.7
2017-Oct-14 09:01N 45°20' E 036°40'0 0.1
2017-Oct-14 08:30N 45°20' E 036°40'0 0.0
2017-Oct-14 08:00N 45°20' E 036°40'0 0.0
2017-Oct-14 07:31N 45°20' E 036°40'0 0.0
2017-Oct-14 07:01N 45°20' E 036°40'0 0.0
2017-Oct-14 06:31N 45°20' E 036°40'0 0.0
2017-Oct-14 06:01N 45°20' E 036°40'0 0.0
2017-Oct-14 05:30N 45°20' E 036°40'3 6.0
2017-Oct-14 05:00N 45°23' E 036°41'0 0.0
2017-Oct-14 04:28N 45°23' E 036°41'0 0.0
2017-Oct-14 03:58N 45°23' E 036°41'0 0.0
2017-Oct-14 03:29N 45°23' E 036°41'0 0.0
2017-Oct-14 02:59N 45°23' E 036°41'0 0.0
2017-Oct-14 02:27N 45°23' E 036°41'0 0.0
2017-Oct-14 02:00N 45°23' E 036°41'0 0.0
2017-Oct-14 01:24N 45°23' E 036°41'0 0.0
2017-Oct-14 00:58N 45°23' E 036°41'0 0.0
2017-Oct-14 00:29N 45°23' E 036°41'0 0.0
2017-Oct-14 00:00N 45°23' E 036°41'0 0.0
2017-Oct-13 23:29N 45°23' E 036°41'0 0.0
2017-Oct-13 23:00N 45°23' E 036°41'0 0.0
2017-Oct-13 22:30N 45°23' E 036°41'0 0.1
2017-Oct-13 21:58N 45°23' E 036°41'0 0.0
2017-Oct-13 21:26N 45°23' E 036°41'0 0.0
2017-Oct-13 21:00N 45°23' E 036°41'0 0.0
2017-Oct-13 20:29N 45°23' E 036°41'0 0.0
2017-Oct-13 19:55N 45°23' E 036°41'0 0.0
2017-Oct-13 19:24N 45°23' E 036°41'0 0.0
2017-Oct-13 19:00N 45°23' E 036°41'0 0.0
2017-Oct-13 18:29N 45°23' E 036°41'0 0.0
2017-Oct-13 17:58N 45°23' E 036°41'0 0.0
2017-Oct-13 17:29N 45°23' E 036°41'0 0.0
2017-Oct-13 16:53N 45°23' E 036°41'0 0.0
2017-Oct-13 16:30N 45°23' E 036°41'0 0.0
2017-Oct-13 15:56N 45°23' E 036°41'0 0.0
2017-Oct-13 15:25N 45°23' E 036°41'0 0.0
2017-Oct-13 14:54N 45°23' E 036°41'0 0.0
2017-Oct-13 14:28N 45°23' E 036°41'4 7.6
2017-Oct-13 14:00N 45°21' E 036°38'  
2017-Oct-10 21:42N 45°19' E 036°31'2 9.5
2017-Oct-10 21:30N 45°17' E 036°29'5 9.5
2017-Oct-10 21:00N 45°13' E 036°29'4 8.1
2017-Oct-10 20:29N 45°09' E 036°33'2 3.3
2017-Oct-10 19:58N 45°08' E 036°34'1 3.1
2017-Oct-10 19:31N 45°07' E 036°33'0 0.3
2017-Oct-10 18:39N 45°07' E 036°32'2 9.4
2017-Oct-10 18:26N 45°09' E 036°32'1 1.3
2017-Oct-10 17:37N 45°10' E 036°32'0 0.1
2017-Oct-10 17:23N 45°10' E 036°32'3 8.1
2017-Oct-10 16:59N 45°13' E 036°31'1 0.8
2017-Oct-10 16:23N 45°12' E 036°31'3 5.5
2017-Oct-10 15:49N 45°10' E 036°33'2 0.2
2017-Oct-10 09:18N 45°10' E 036°35'0 0.0
2017-Oct-10 06:47N 45°10' E 036°35'1 2.3
2017-Oct-10 06:24N 45°10' E 036°34'1 1.7
2017-Oct-10 06:01N 45°10' E 036°33'2 3.7
2017-Oct-10 05:28N 45°09' E 036°35'0 0.0
2017-Oct-09 22:59N 45°09' E 036°35'2 3.7
2017-Oct-09 22:29N 45°08' E 036°33'5 1.3
2017-Oct-09 18:57N 45°11' E 036°28'4 8.6
2017-Oct-09 18:29N 45°15' E 036°29'5 6.2
2017-Oct-09 17:41N 45°19' E 036°32'1 6.2
2017-Oct-09 17:30N 45°20' E 036°34'3 5.7
2017-Oct-09 17:00N 45°21' E 036°38'2 4.1
2017-Oct-09 16:30N 45°20' E 036°40'0 0.0
2017-Oct-09 16:00N 45°20' E 036°40'1 2.1
2017-Oct-09 15:30N 45°21' E 036°39'3 6.4
2017-Oct-09 15:00N 45°20' E 036°35'5 9.7
2017-Oct-09 14:29N 45°17' E 036°29'5 9.1
2017-Oct-09 13:56N 45°12' E 036°30'3 6.2
2017-Oct-09 13:28N 45°10' E 036°33'3 5.2
2017-Oct-09 12:57N 45°08' E 036°34'5 0.7
2017-Oct-09 05:18N 45°08' E 036°27'0 0.0
2017-Oct-09 04:46N 45°08' E 036°27'0 0.0
2017-Oct-09 04:26N 45°08' E 036°27'0 0.0
2017-Oct-08 14:35N 45°08' E 036°27'4 3.3
2017-Oct-08 13:21N 45°06' E 036°32'1 0.6
2017-Oct-08 11:17N 45°06' E 036°33'1 1.2
2017-Oct-08 10:50N 45°06' E 036°33'3 3.0
2017-Oct-08 09:53N 45°08' E 036°35'0 0.3
2017-Oct-08 09:24N 45°08' E 036°36'0 0.1
2017-Oct-08 08:35N 45°08' E 036°36'0 0.0
2017-Oct-08 08:12N 45°08' E 036°36'0 0.0
2017-Oct-08 07:11N 45°08' E 036°36'0 0.0
2017-Oct-08 06:43N 45°08' E 036°36'0 0.0
2017-Oct-07 18:26N 45°08' E 036°36'  
Track history (hours):
 
Tides and Currents Weather Stations Pressure Air Temp Water Temp Dewpoint Dewpoint Depression Visibility Wind Speed Wind Dir Waves Ship Positions

Mb Linter 2

Last reported at 2017-Oct-17 13:57 UTC. Time now 2017-Oct-17 18:55 UTC.
Position N 45°08' E 036°33'.

Length 26 m; draft 3.2 m.

Type: Ship. MMSI: 273383840.

Date/timePositionNaut miles runAvg speedWind from/ knotsBaromVisibWave heightAir tempDewpointWater temp
2017-Oct-17 13:57N 45°08' E 036°33'3 5.2
2017-Oct-17 13:28N 45°10' E 036°34'2 3.9
2017-Oct-17 12:55N 45°08' E 036°33'4 9.1
2017-Oct-17 12:30N 45°11' E 036°30'4 8.9
2017-Oct-17 12:00N 45°16' E 036°29'4 7.1
2017-Oct-17 11:30N 45°19' E 036°31'4 7.4
2017-Oct-17 11:00N 45°20' E 036°36'3 5.0
2017-Oct-17 10:29N 45°21' E 036°39'0 0.6
2017-Oct-17 10:00N 45°21' E 036°40'2 4.0
2017-Oct-17 09:30N 45°22' E 036°42'0 0.0
2017-Oct-17 08:59N 45°22' E 036°42'0 0.0
2017-Oct-17 08:30N 45°22' E 036°42'0 0.0
2017-Oct-17 08:00N 45°22' E 036°42'0 0.0
2017-Oct-17 07:26N 45°22' E 036°42'0 0.0
2017-Oct-17 06:59N 45°22' E 036°42'0 0.0
2017-Oct-17 06:30N 45°22' E 036°42'0 0.0
2017-Oct-17 05:59N 45°22' E 036°42'0 0.0
2017-Oct-17 05:26N 45°22' E 036°42'0 0.0
2017-Oct-17 04:54N 45°22' E 036°42'0 0.0
2017-Oct-17 04:30N 45°22' E 036°42'0 0.0
2017-Oct-17 03:58N 45°22' E 036°42'0 0.0
2017-Oct-17 03:16N 45°22' E 036°42'0 0.0
2017-Oct-17 02:58N 45°22' E 036°42'0 0.0
2017-Oct-17 02:30N 45°22' E 036°42'0 0.0
2017-Oct-17 01:58N 45°22' E 036°42'0 0.0
2017-Oct-17 01:27N 45°22' E 036°42'0 0.0
2017-Oct-17 00:54N 45°22' E 036°42'0 0.0
2017-Oct-17 00:28N 45°22' E 036°42'0 0.0
2017-Oct-16 23:58N 45°22' E 036°42'0 0.0
2017-Oct-16 23:22N 45°22' E 036°42'0 0.0
2017-Oct-16 22:58N 45°22' E 036°42'0 0.0
2017-Oct-16 22:28N 45°22' E 036°42'0 0.0
2017-Oct-16 21:58N 45°22' E 036°42'0 0.0
2017-Oct-16 21:25N 45°22' E 036°42'0 0.0
2017-Oct-16 20:54N 45°22' E 036°42'0 0.0
2017-Oct-16 20:30N 45°22' E 036°42'0 0.0
2017-Oct-16 19:56N 45°22' E 036°42'0 0.0
2017-Oct-16 19:28N 45°22' E 036°42'0 0.0
2017-Oct-16 19:00N 45°22' E 036°42'0 0.0
2017-Oct-16 18:28N 45°22' E 036°42'0 0.0
2017-Oct-16 17:59N 45°22' E 036°42'0 0.0
2017-Oct-16 17:27N 45°22' E 036°42'0 0.0
2017-Oct-16 16:59N 45°22' E 036°42'0 0.0
2017-Oct-16 16:29N 45°22' E 036°42'0 0.0
2017-Oct-16 15:58N 45°22' E 036°42'0 0.0
2017-Oct-16 15:24N 45°22' E 036°42'0 0.0
2017-Oct-16 15:00N 45°22' E 036°42'0 0.0
2017-Oct-16 13:59N 45°22' E 036°42'0 0.0
2017-Oct-16 13:29N 45°22' E 036°42'0 0.0
2017-Oct-16 13:00N 45°22' E 036°42'0 0.0
2017-Oct-16 12:28N 45°22' E 036°42'0 0.0
2017-Oct-16 11:56N 45°22' E 036°42'0 0.0
2017-Oct-16 11:28N 45°22' E 036°42'0 0.0
2017-Oct-16 10:59N 45°22' E 036°42'0 0.0
2017-Oct-16 10:27N 45°22' E 036°42'0 0.0
2017-Oct-16 09:57N 45°22' E 036°42'0 0.0
2017-Oct-16 09:28N 45°22' E 036°42'0 0.0
2017-Oct-16 08:58N 45°22' E 036°42'0 0.0
2017-Oct-16 08:28N 45°22' E 036°42'0 0.0
2017-Oct-16 07:59N 45°22' E 036°42'0 0.0
2017-Oct-16 07:28N 45°22' E 036°42'0 0.0
2017-Oct-16 06:59N 45°22' E 036°42'0 0.0
2017-Oct-16 06:29N 45°22' E 036°42'0 0.0
2017-Oct-16 05:56N 45°22' E 036°42'0 0.0
2017-Oct-16 05:29N 45°22' E 036°42'0 0.0
2017-Oct-16 04:53N 45°22' E 036°42'0 0.0
2017-Oct-16 04:28N 45°22' E 036°42'0 0.0
2017-Oct-16 03:56N 45°22' E 036°42'0 0.0
2017-Oct-16 03:26N 45°22' E 036°42'0 0.0
2017-Oct-16 02:59N 45°22' E 036°42'0 0.0
2017-Oct-16 02:30N 45°22' E 036°42'0 0.0
2017-Oct-16 01:58N 45°22' E 036°42'0 0.0
2017-Oct-16 01:29N 45°22' E 036°42'0 0.0
2017-Oct-16 00:58N 45°22' E 036°42'0 0.0
2017-Oct-16 00:30N 45°22' E 036°42'0 0.0
2017-Oct-15 23:58N 45°22' E 036°42'0 0.0
2017-Oct-15 23:30N 45°22' E 036°42'0 0.0
2017-Oct-15 22:57N 45°22' E 036°42'0 0.0
2017-Oct-15 22:28N 45°22' E 036°42'0 0.1
2017-Oct-15 22:00N 45°22' E 036°42'0 0.0
2017-Oct-15 21:24N 45°22' E 036°42'0 0.0
2017-Oct-15 20:59N 45°22' E 036°42'0 0.0
2017-Oct-15 20:29N 45°22' E 036°42'0 0.0
2017-Oct-15 19:56N 45°22' E 036°42'0 0.0
2017-Oct-15 19:27N 45°22' E 036°42'0 0.0
2017-Oct-15 18:59N 45°22' E 036°42'0 0.0
2017-Oct-15 18:28N 45°22' E 036°42'0 0.0
2017-Oct-15 17:58N 45°22' E 036°42'0 0.0
2017-Oct-15 17:26N 45°22' E 036°42'0 0.0
2017-Oct-15 16:52N 45°22' E 036°42'0 0.0
2017-Oct-15 16:29N 45°22' E 036°42'0 0.0
2017-Oct-15 15:56N 45°22' E 036°42'0 0.0
2017-Oct-15 15:30N 45°22' E 036°42'2 3.7
2017-Oct-15 15:00N 45°21' E 036°40'4 4.2
2017-Oct-15 14:00N 45°20' E 036°34'4 6.3
2017-Oct-15 13:18N 45°17' E 036°29'3 7.5
2017-Oct-15 12:51N 45°14' E 036°29'4 8.9
2017-Oct-15 12:24N 45°10' E 036°31'2 0.2
2017-Oct-15 02:55N 45°09' E 036°34'4 9.5
2017-Oct-15 02:30N 45°12' E 036°30'4 8.7
2017-Oct-15 02:01N 45°16' E 036°28'4 8.5
2017-Oct-15 01:31N 45°19' E 036°33'5 9.2
2017-Oct-15 01:00N 45°21' E 036°39'1 2.4
2017-Oct-15 00:31N 45°20' E 036°40'4 8.1
2017-Oct-15 00:00N 45°20' E 036°34'4 8.3
2017-Oct-14 23:29N 45°18' E 036°29'4 8.6
2017-Oct-14 23:00N 45°13' E 036°29'6 1.7
2017-Oct-14 19:25N 45°09' E 036°34'1 0.2
2017-Oct-14 14:19N 45°09' E 036°33'0 0.6
2017-Oct-14 14:00N 45°09' E 036°33'1 1.6
2017-Oct-14 13:11N 45°07' E 036°33'0 1.3
2017-Oct-14 12:59N 45°07' E 036°33'0 0.0
2017-Oct-14 12:30N 45°07' E 036°33'1 0.7
2017-Oct-14 11:23N 45°08' E 036°33'2 4.7
2017-Oct-14 11:00N 45°10' E 036°32'5 9.2
2017-Oct-14 10:30N 45°14' E 036°28'4 8.8
2017-Oct-14 10:00N 45°18' E 036°29'4 9.0
2017-Oct-14 09:30N 45°20' E 036°35'4 7.7
2017-Oct-14 09:01N 45°20' E 036°40'0 0.1
2017-Oct-14 08:30N 45°20' E 036°40'0 0.0
2017-Oct-14 08:00N 45°20' E 036°40'0 0.0
2017-Oct-14 07:31N 45°20' E 036°40'0 0.0
2017-Oct-14 07:01N 45°20' E 036°40'0 0.0
2017-Oct-14 06:31N 45°20' E 036°40'0 0.0
2017-Oct-14 06:01N 45°20' E 036°40'0 0.0
2017-Oct-14 05:30N 45°20' E 036°40'3 6.0
2017-Oct-14 05:00N 45°23' E 036°41'0 0.0
2017-Oct-14 04:28N 45°23' E 036°41'0 0.0
2017-Oct-14 03:58N 45°23' E 036°41'0 0.0
2017-Oct-14 03:29N 45°23' E 036°41'0 0.0
2017-Oct-14 02:59N 45°23' E 036°41'0 0.0
2017-Oct-14 02:27N 45°23' E 036°41'0 0.0
2017-Oct-14 02:00N 45°23' E 036°41'0 0.0
2017-Oct-14 01:24N 45°23' E 036°41'0 0.0
2017-Oct-14 00:58N 45°23' E 036°41'0 0.0
2017-Oct-14 00:29N 45°23' E 036°41'0 0.0
2017-Oct-14 00:00N 45°23' E 036°41'0 0.0
2017-Oct-13 23:29N 45°23' E 036°41'0 0.0
2017-Oct-13 23:00N 45°23' E 036°41'0 0.0
2017-Oct-13 22:30N 45°23' E 036°41'0 0.1
2017-Oct-13 21:58N 45°23' E 036°41'0 0.0
2017-Oct-13 21:26N 45°23' E 036°41'0 0.0
2017-Oct-13 21:00N 45°23' E 036°41'0 0.0
2017-Oct-13 20:29N 45°23' E 036°41'0 0.0
2017-Oct-13 19:55N 45°23' E 036°41'0 0.0
2017-Oct-13 19:24N 45°23' E 036°41'0 0.0
2017-Oct-13 19:00N 45°23' E 036°41'0 0.0
2017-Oct-13 18:29N 45°23' E 036°41'0 0.0
2017-Oct-13 17:58N 45°23' E 036°41'0 0.0
2017-Oct-13 17:29N 45°23' E 036°41'0 0.0
2017-Oct-13 16:53N 45°23' E 036°41'0 0.0
2017-Oct-13 16:30N 45°23' E 036°41'0 0.0
2017-Oct-13 15:56N 45°23' E 036°41'0 0.0
2017-Oct-13 15:25N 45°23' E 036°41'0 0.0
2017-Oct-13 14:54N 45°23' E 036°41'0 0.0
2017-Oct-13 14:28N 45°23' E 036°41'4 7.6
2017-Oct-13 14:00N 45°21' E 036°38'  
2017-Oct-10 21:42N 45°19' E 036°31'2 9.5
2017-Oct-10 21:30N 45°17' E 036°29'5 9.5
2017-Oct-10 21:00N 45°13' E 036°29'4 8.1
2017-Oct-10 20:29N 45°09' E 036°33'2 3.3
2017-Oct-10 19:58N 45°08' E 036°34'1 3.1
2017-Oct-10 19:31N 45°07' E 036°33'0 0.3
2017-Oct-10 18:39N 45°07' E 036°32'2 9.4
2017-Oct-10 18:26N 45°09' E 036°32'1 1.3
2017-Oct-10 17:37N 45°10' E 036°32'0 0.1
2017-Oct-10 17:23N 45°10' E 036°32'3 8.1
2017-Oct-10 16:59N 45°13' E 036°31'1 0.8
2017-Oct-10 16:23N 45°12' E 036°31'3 5.5
2017-Oct-10 15:49N 45°10' E 036°33'2 0.2
2017-Oct-10 09:18N 45°10' E 036°35'0 0.0
2017-Oct-10 06:47N 45°10' E 036°35'1 2.3
2017-Oct-10 06:24N 45°10' E 036°34'1 1.7
2017-Oct-10 06:01N 45°10' E 036°33'2 3.7
2017-Oct-10 05:28N 45°09' E 036°35'0 0.0
2017-Oct-09 22:59N 45°09' E 036°35'2 3.7
2017-Oct-09 22:29N 45°08' E 036°33'5 1.3
2017-Oct-09 18:57N 45°11' E 036°28'4 8.6
2017-Oct-09 18:29N 45°15' E 036°29'5 6.2
2017-Oct-09 17:41N 45°19' E 036°32'1 6.2
2017-Oct-09 17:30N 45°20' E 036°34'3 5.7
2017-Oct-09 17:00N 45°21' E 036°38'2 4.1
2017-Oct-09 16:30N 45°20' E 036°40'0 0.0
2017-Oct-09 16:00N 45°20' E 036°40'1 2.1
2017-Oct-09 15:30N 45°21' E 036°39'3 6.4
2017-Oct-09 15:00N 45°20' E 036°35'5 9.7
2017-Oct-09 14:29N 45°17' E 036°29'5 9.1
2017-Oct-09 13:56N 45°12' E 036°30'3 6.2
2017-Oct-09 13:28N 45°10' E 036°33'3 5.2
2017-Oct-09 12:57N 45°08' E 036°34'5 0.7
2017-Oct-09 05:18N 45°08' E 036°27'0 0.0
2017-Oct-09 04:46N 45°08' E 036°27'0 0.0
2017-Oct-09 04:26N 45°08' E 036°27'0 0.0
2017-Oct-08 14:35N 45°08' E 036°27'4 3.3
2017-Oct-08 13:21N 45°06' E 036°32'1 0.6
2017-Oct-08 11:17N 45°06' E 036°33'1 1.2
2017-Oct-08 10:50N 45°06' E 036°33'3 3.0
2017-Oct-08 09:53N 45°08' E 036°35'0 0.3
2017-Oct-08 09:24N 45°08' E 036°36'0 0.1
2017-Oct-08 08:35N 45°08' E 036°36'0 0.0
2017-Oct-08 08:12N 45°08' E 036°36'0 0.0
2017-Oct-08 07:11N 45°08' E 036°36'0 0.0
2017-Oct-08 06:43N 45°08' E 036°36'0 0.0
2017-Oct-07 18:26N 45°08' E 036°36'  

Dump ship's entire track history